createdAt,value
2017-05-03T00:01:10.516Z,34.31
2017-05-03T00:02:20.810Z,34.22
2017-05-03T00:03:31.095Z,34.03
2017-05-03T00:04:41.082Z,34.12
2017-05-03T00:05:51.368Z,34.12
2017-05-03T00:07:01.899Z,34.22
2017-05-03T00:08:12.186Z,34.31
2017-05-03T00:09:22.486Z,34.22
2017-05-03T00:10:32.460Z,34.31
2017-05-03T00:11:42.745Z,34.31
2017-05-03T00:12:53.287Z,34.31
2017-05-03T00:14:02.946Z,34.22
2017-05-03T00:15:12.939Z,34.03
2017-05-03T00:16:23.227Z,34.22
2017-05-03T00:17:33.511Z,34.43
2017-05-03T00:18:43.744Z,34.31
2017-05-03T00:19:54.040Z,34.51
2017-05-03T00:21:04.331Z,34.31
2017-05-03T00:22:14.613Z,34.41
2017-05-03T00:23:24.891Z,34.22
2017-05-03T00:24:35.429Z,34.41
2017-05-03T00:25:45.706Z,34.12
2017-05-03T00:26:55.984Z,34.31
2017-05-03T00:28:05.956Z,34.22
2017-05-03T00:29:16.253Z,34.41
2017-05-03T00:30:26.786Z,34.31
2017-05-03T00:31:36.757Z,34.41
2017-05-03T00:32:47.042Z,34.31
2017-05-03T00:33:57.327Z,34.31
2017-05-03T00:35:07.907Z,34.31
2017-05-03T00:36:18.457Z,34.31
2017-05-03T00:37:28.740Z,34.51
2017-05-03T00:38:40.218Z,34.12
2017-05-03T00:39:50.489Z,34.31
2017-05-03T00:41:00.449Z,34.31
2017-05-03T00:42:10.981Z,34.31
2017-05-03T00:43:20.975Z,34.7
2017-05-03T00:44:30.958Z,34.41
2017-05-03T00:45:41.239Z,34.51
2017-05-03T00:46:51.204Z,34.51
2017-05-03T00:48:01.433Z,34.12
2017-05-03T00:49:11.096Z,34.22
2017-05-03T00:50:21.066Z,34.41
2017-05-03T00:51:31.351Z,34.31
2017-05-03T00:52:41.653Z,34.22
2017-05-03T00:53:52.192Z,34.41
2017-05-03T00:55:02.481Z,34.22
2017-05-03T00:56:12.765Z,34.12
2017-05-03T00:57:23.048Z,34.41
2017-05-03T00:58:33.359Z,34.31
2017-05-03T00:59:43.578Z,34.22
2017-05-03T01:00:53.847Z,34.12
2017-05-03T01:02:04.136Z,34.31
2017-05-03T01:03:14.424Z,34.31
2017-05-03T01:04:24.712Z,34.51
2017-05-03T01:05:35.250Z,34.22
2017-05-03T01:06:45.529Z,34.22
2017-05-03T01:07:55.858Z,34.51
2017-05-03T01:09:06.141Z,34.41
2017-05-03T01:10:16.428Z,34.51
2017-05-03T01:11:26.957Z,34.51
2017-05-03T01:12:36.933Z,34.31
2017-05-03T01:13:46.926Z,34.41
2017-05-03T01:14:57.218Z,34.51
2017-05-03T01:16:07.511Z,34.41
2017-05-03T01:17:18.053Z,34.41
2017-05-03T01:18:28.022Z,34.12
2017-05-03T01:19:37.999Z,34.41
2017-05-03T01:20:48.284Z,34.41
2017-05-03T01:21:58.258Z,34.51
2017-05-03T01:23:08.793Z,34.41
2017-05-03T01:24:19.085Z,34.41
2017-05-03T01:25:29.054Z,34.12
2017-05-03T01:26:39.030Z,34.51
2017-05-03T01:27:49.321Z,34.41
2017-05-03T01:28:59.556Z,34.31
2017-05-03T01:30:09.230Z,34.51
2017-05-03T01:31:19.513Z,34.51
2017-05-03T01:32:29.482Z,34.41
2017-05-03T01:33:39.774Z,34.51
2017-05-03T01:34:50.310Z,34.41
2017-05-03T01:36:00.290Z,34.41
2017-05-03T01:37:10.581Z,34.41
2017-05-03T01:38:20.868Z,34.41
2017-05-03T01:39:31.174Z,34.31
2017-05-03T01:40:41.393Z,34.41
2017-05-03T01:41:51.787Z,34.51
2017-05-03T01:43:01.759Z,34.51
2017-05-03T01:44:11.746Z,34.41
2017-05-03T01:45:22.036Z,34.41
2017-05-03T01:46:32.572Z,34.51
2017-05-03T01:47:42.548Z,34.41
2017-05-03T01:48:52.835Z,34.41
2017-05-03T01:50:03.112Z,34.41
2017-05-03T01:51:13.091Z,34.41
2017-05-03T01:52:23.321Z,34.31
2017-05-03T01:53:33.598Z,34.51
2017-05-03T01:54:43.881Z,34.61
2017-05-03T01:55:54.161Z,34.61
2017-05-03T01:57:04.436Z,34.41
2017-05-03T01:58:14.660Z,34.61
2017-05-03T01:59:24.645Z,34.41
2017-05-03T02:00:34.619Z,34.41
2017-05-03T02:01:44.591Z,34.61
2017-05-03T02:02:54.887Z,34.41
2017-05-03T02:04:05.126Z,34.31
2017-05-03T02:05:15.146Z,34.51
2017-05-03T02:06:25.118Z,34.51
2017-05-03T02:07:35.400Z,34.61
2017-05-03T02:08:45.699Z,34.51
2017-05-03T02:09:56.238Z,34.51
2017-05-03T02:11:06.514Z,34.51
2017-05-03T02:12:16.501Z,34.51
2017-05-03T02:13:26.160Z,34.51
2017-05-03T02:14:36.444Z,34.51
2017-05-03T02:15:46.977Z,34.41
2017-05-03T02:16:57.264Z,34.7
2017-05-03T02:18:07.542Z,34.61
2017-05-03T02:19:17.834Z,34.7
2017-05-03T02:20:27.808Z,34.51
2017-05-03T02:21:38.351Z,34.41
2017-05-03T02:22:48.638Z,34.41
2017-05-03T02:23:58.924Z,34.7
2017-05-03T02:25:08.892Z,34.7
2017-05-03T02:26:19.175Z,34.51
2017-05-03T02:27:29.093Z,34.51
2017-05-03T02:28:39.386Z,34.41
2017-05-03T02:29:49.679Z,34.41
2017-05-03T02:30:59.973Z,34.51
2017-05-03T02:32:10.254Z,34.41
2017-05-03T02:33:20.204Z,34.51
2017-05-03T02:34:29.859Z,34.51
2017-05-03T02:35:39.523Z,34.61
2017-05-03T02:36:49.495Z,34.61
2017-05-03T02:37:59.468Z,34.61
2017-05-03T02:39:09.694Z,34.51
2017-05-03T02:40:20.205Z,34.61
2017-05-03T02:41:30.501Z,34.7
2017-05-03T02:42:40.788Z,34.61
2017-05-03T02:43:50.769Z,34.51
2017-05-03T02:45:01.299Z,34.61
2017-05-03T02:46:11.592Z,34.61
2017-05-03T02:47:21.556Z,34.51
2017-05-03T02:48:31.534Z,34.61
2017-05-03T02:49:41.821Z,34.62
2017-05-03T02:50:52.379Z,34.61
2017-05-03T02:52:02.348Z,34.61
2017-05-03T02:53:12.633Z,34.61
2017-05-03T02:54:22.918Z,34.61
2017-05-03T02:55:33.200Z,34.51
2017-05-03T02:56:43.427Z,34.61
2017-05-03T02:57:53.400Z,34.51
2017-05-03T02:59:03.721Z,34.7
2017-05-03T03:00:14.001Z,34.7
2017-05-03T03:01:23.659Z,34.51
2017-05-03T03:02:33.571Z,34.61
2017-05-03T03:03:43.853Z,34.8
2017-05-03T03:04:53.826Z,34.8
2017-05-03T03:06:03.813Z,34.61
2017-05-03T03:07:13.469Z,34.8
2017-05-03T03:08:23.698Z,34.61
2017-05-03T03:09:33.359Z,34.8
2017-05-03T03:10:43.689Z,34.61
2017-05-03T03:11:53.973Z,34.7
2017-05-03T03:13:04.270Z,34.41
2017-05-03T03:14:14.811Z,34.61
2017-05-03T03:15:25.096Z,34.61
2017-05-03T03:16:35.068Z,34.51
2017-05-03T03:17:45.043Z,34.51
2017-05-03T03:18:55.324Z,34.61
2017-05-03T03:20:05.862Z,34.7
2017-05-03T03:21:15.858Z,34.51
2017-05-03T03:22:25.834Z,34.7
2017-05-03T03:23:36.113Z,34.7
2017-05-03T03:24:46.088Z,34.61
2017-05-03T03:25:56.631Z,34.51
2017-05-03T03:27:06.904Z,34.61
2017-05-03T03:28:16.879Z,34.61
2017-05-03T03:29:27.176Z,34.41
2017-05-03T03:30:37.464Z,34.51
2017-05-03T03:31:47.369Z,34.51
2017-05-03T03:32:57.649Z,34.61
2017-05-03T03:34:07.940Z,34.61
2017-05-03T03:35:17.927Z,34.61
2017-05-03T03:36:27.290Z,34.51
2017-05-03T03:37:37.820Z,34.61
2017-05-03T03:38:48.124Z,34.7
2017-05-03T03:39:58.410Z,34.51
2017-05-03T03:41:08.698Z,34.51
2017-05-03T03:42:18.977Z,34.7
2017-05-03T03:43:29.199Z,34.51
2017-05-03T03:44:39.483Z,34.61
2017-05-03T03:45:49.453Z,34.51
2017-05-03T03:46:59.735Z,34.61
2017-05-03T03:48:09.397Z,34.61
2017-05-03T03:49:19.619Z,34.51
2017-05-03T03:50:29.587Z,34.7
2017-05-03T03:51:39.866Z,34.7
2017-05-03T03:52:50.150Z,34.7
2017-05-03T03:54:00.433Z,34.61
2017-05-03T03:55:10.960Z,34.61
2017-05-03T03:56:21.252Z,34.41
2017-05-03T03:57:31.225Z,34.41
2017-05-03T03:58:41.511Z,34.51
2017-05-03T03:59:51.481Z,34.7
2017-05-03T04:01:02.019Z,34.7
2017-05-03T04:02:11.678Z,34.41
2017-05-03T04:03:21.971Z,34.7
2017-05-03T04:04:31.948Z,34.51
2017-05-03T04:05:41.920Z,34.41
2017-05-03T04:06:52.459Z,34.51
2017-05-03T04:08:02.436Z,34.41
2017-05-03T04:09:12.725Z,34.41
2017-05-03T04:10:23.008Z,34.51
2017-05-03T04:11:32.971Z,34.51
2017-05-03T04:12:43.192Z,34.51
2017-05-03T04:13:53.159Z,34.61
2017-05-03T04:15:03.489Z,34.53
2017-05-03T04:16:13.778Z,34.41
2017-05-03T04:17:24.066Z,34.41
2017-05-03T04:18:34.607Z,34.51
2017-05-03T04:19:44.896Z,34.51
2017-05-03T04:20:55.177Z,34.51
2017-05-03T04:22:05.453Z,34.51
2017-05-03T04:23:15.431Z,34.41
2017-05-03T04:24:25.703Z,34.31
2017-05-03T04:25:35.683Z,34.51
2017-05-03T04:26:45.967Z,34.41
2017-05-03T04:27:55.942Z,34.41
2017-05-03T04:29:06.250Z,34.51
2017-05-03T04:30:16.511Z,34.12
2017-05-03T04:31:26.482Z,34.23
2017-05-03T04:32:36.770Z,34.22
2017-05-03T04:33:47.068Z,34.22
2017-05-03T04:34:57.055Z,34.22
2017-05-03T04:36:07.590Z,34.23
2017-05-03T04:37:17.901Z,34.05
2017-05-03T04:38:27.887Z,34.31
2017-05-03T04:39:38.182Z,34.12
2017-05-03T04:40:48.458Z,34.31
2017-05-03T04:41:58.983Z,34.22
2017-05-03T04:43:09.004Z,34.23
2017-05-03T04:44:19.289Z,34.22
2017-05-03T04:45:29.586Z,34.41
2017-05-03T04:46:39.871Z,34.41
2017-05-03T04:47:50.104Z,34.23
2017-05-03T04:49:00.405Z,34.22
2017-05-03T04:50:10.690Z,34.23
2017-05-03T04:51:21.004Z,34.23
2017-05-03T04:52:31.282Z,34.12
2017-05-03T04:53:41.818Z,34.05
2017-05-03T04:54:52.107Z,34.03
2017-05-03T04:56:01.775Z,34.12
2017-05-03T04:57:12.262Z,34.23
2017-05-03T04:58:22.234Z,34.12
2017-05-03T04:59:32.459Z,34.03
2017-05-03T05:00:42.756Z,34.31
2017-05-03T05:01:52.726Z,34.12
2017-05-03T05:03:02.382Z,34.12
2017-05-03T05:04:12.659Z,34.12
2017-05-03T05:05:22.882Z,34.03
2017-05-03T05:06:32.850Z,34.12
2017-05-03T05:07:43.138Z,34.12
2017-05-03T05:08:53.108Z,33.95
2017-05-03T05:10:03.103Z,34.14
2017-05-03T05:11:13.632Z,34.12
2017-05-03T05:12:23.605Z,33.93
2017-05-03T05:13:33.895Z,34.12
2017-05-03T05:14:44.184Z,34.12
2017-05-03T05:15:54.158Z,34.31
2017-05-03T05:17:04.437Z,34.23
2017-05-03T05:18:14.724Z,34.12
2017-05-03T05:19:25.007Z,34.12
2017-05-03T05:20:35.551Z,33.93
2017-05-03T05:21:45.211Z,34.03
2017-05-03T05:22:55.743Z,34.12
2017-05-03T05:24:05.724Z,34.03
2017-05-03T05:25:16.008Z,34.03
2017-05-03T05:26:25.672Z,33.95
2017-05-03T05:27:35.962Z,34.05
2017-05-03T05:28:46.180Z,34.03
2017-05-03T05:29:56.484Z,34.05
2017-05-03T05:31:06.776Z,34.05
2017-05-03T05:32:16.752Z,34.03
2017-05-03T05:33:26.726Z,34.05
2017-05-03T05:34:37.266Z,33.95
2017-05-03T05:35:47.610Z,34.03
2017-05-03T05:36:57.888Z,34.03
2017-05-03T05:38:08.172Z,34.05
2017-05-03T05:39:18.474Z,34.05
2017-05-03T05:40:29.003Z,34.05
2017-05-03T05:41:38.975Z,34.05
2017-05-03T05:42:48.947Z,33.95
2017-05-03T05:43:59.256Z,34.03
2017-05-03T05:45:09.537Z,34.14
2017-05-03T05:46:19.476Z,34.14
2017-05-03T05:47:29.125Z,34.12
2017-05-03T05:48:38.792Z,34.14
2017-05-03T05:49:49.074Z,33.95
2017-05-03T05:50:59.050Z,34.03
2017-05-03T05:52:09.595Z,34.14
2017-05-03T05:53:19.586Z,34.14
2017-05-03T05:54:29.876Z,34.14
2017-05-03T05:55:39.865Z,34.14
2017-05-03T05:56:50.157Z,34.05
2017-05-03T05:58:00.380Z,34.14
2017-05-03T05:59:10.705Z,34.23
2017-05-03T06:00:20.689Z,33.56
2017-05-03T06:01:30.978Z,34.14
2017-05-03T06:02:40.962Z,33.66
2017-05-03T06:03:51.522Z,33.66
2017-05-03T06:05:01.820Z,33.75
2017-05-03T06:06:11.822Z,33.66
2017-05-03T06:07:22.121Z,33.66
2017-05-03T06:08:32.437Z,33.75
2017-05-03T06:09:42.979Z,33.75
2017-05-03T06:10:53.265Z,33.85
2017-05-03T06:12:02.941Z,33.85
2017-05-03T06:13:12.976Z,33.85
2017-05-03T06:14:22.968Z,33.85
2017-05-03T06:15:33.202Z,33.75
2017-05-03T06:16:43.495Z,33.85
2017-05-03T06:17:53.790Z,33.95
2017-05-03T06:19:03.768Z,33.75
2017-05-03T06:20:14.082Z,33.75
2017-05-03T06:21:24.301Z,33.85
2017-05-03T06:22:34.599Z,33.85
2017-05-03T06:23:44.573Z,33.56
2017-05-03T06:24:54.565Z,33.56
2017-05-03T06:26:04.854Z,33.18
2017-05-03T06:27:15.410Z,33.47
2017-05-03T06:28:25.395Z,33.56
2017-05-03T06:29:35.074Z,33.08
2017-05-03T06:30:45.373Z,33.47
2017-05-03T06:31:55.351Z,33.08
2017-05-03T06:33:05.592Z,33.08
2017-05-03T06:34:15.891Z,33.18
2017-05-03T06:35:25.870Z,33.08
2017-05-03T06:36:36.167Z,33.47
2017-05-03T06:37:46.442Z,33.18
2017-05-03T06:38:56.988Z,33.37
2017-05-03T06:40:06.964Z,33.18
2017-05-03T06:41:17.274Z,33.18
2017-05-03T06:42:27.248Z,33.18
2017-05-03T06:43:37.528Z,32.98
2017-05-03T06:44:48.064Z,32.98
2017-05-03T06:45:58.346Z,33.37
2017-05-03T06:47:08.329Z,33.28
2017-05-03T06:48:18.309Z,33.08
2017-05-03T06:49:28.611Z,33.18
2017-05-03T06:50:39.146Z,33.37
2017-05-03T06:51:49.453Z,33.37
2017-05-03T06:52:59.738Z,33.08
2017-05-03T06:54:10.047Z,33.28
2017-05-03T06:55:20.343Z,33.28
2017-05-03T06:56:30.890Z,33.18
2017-05-03T06:57:40.886Z,33.08
2017-05-03T06:58:50.860Z,33.08
2017-05-03T07:00:01.162Z,32.98
2017-05-03T07:01:11.155Z,32.98
2017-05-03T07:02:21.764Z,32.98
2017-05-03T07:03:32.063Z,32.7
2017-05-03T07:04:42.372Z,32.9
2017-05-03T07:05:52.652Z,32.79
2017-05-03T07:07:02.659Z,32.6
2017-05-03T07:08:13.191Z,32.71
2017-05-03T07:09:23.484Z,32.7
2017-05-03T07:10:33.768Z,32.51
2017-05-03T07:11:44.057Z,32.43
2017-05-03T07:12:54.038Z,32.9
2017-05-03T07:14:04.276Z,32.31
2017-05-03T07:15:14.564Z,32.41
2017-05-03T07:16:24.868Z,32.52
2017-05-03T07:17:34.879Z,32.52
2017-05-03T07:18:45.183Z,32.62
2017-05-03T07:19:55.723Z,32.52
2017-05-03T07:21:06.033Z,32.52
2017-05-03T07:22:16.314Z,32.33
2017-05-03T07:23:26.303Z,32.43
2017-05-03T07:24:36.608Z,32.33
2017-05-03T07:25:46.888Z,32.04
2017-05-03T07:26:56.868Z,32.52
2017-05-03T07:28:07.173Z,32.43
2017-05-03T07:29:17.485Z,32.43
2017-05-03T07:30:27.767Z,32.33
2017-05-03T07:31:37.671Z,32.33
2017-05-03T07:32:47.966Z,32.33
2017-05-03T07:33:58.278Z,32.43
2017-05-03T07:35:08.563Z,32.33
2017-05-03T07:36:18.848Z,32.33
2017-05-03T07:37:29.095Z,32.04
2017-05-03T07:38:39.080Z,32.33
2017-05-03T07:39:49.397Z,32.33
2017-05-03T07:40:59.412Z,32.33
2017-05-03T07:42:09.782Z,32.43
2017-05-03T07:43:20.341Z,32.04
2017-05-03T07:44:30.642Z,32.43
2017-05-03T07:45:40.926Z,32.04
2017-05-03T07:46:51.219Z,32.23
2017-05-03T07:48:01.224Z,32.14
2017-05-03T07:49:11.796Z,32.23
2017-05-03T07:50:21.775Z,32.33
2017-05-03T07:51:31.446Z,32.14
2017-05-03T07:52:41.437Z,32.33
2017-05-03T07:53:51.432Z,32.23
2017-05-03T07:55:01.969Z,32.23
2017-05-03T07:56:12.269Z,32.14
2017-05-03T07:57:22.557Z,31.95
2017-05-03T07:58:32.557Z,31.95
2017-05-03T07:59:42.538Z,32.04
2017-05-03T08:00:52.779Z,32.23
2017-05-03T08:02:02.756Z,32.06
2017-05-03T08:03:12.737Z,32.14
2017-05-03T08:04:22.730Z,32.15
2017-05-03T08:05:33.037Z,32.14
2017-05-03T08:06:43.622Z,32.14
2017-05-03T08:07:53.918Z,32.04
2017-05-03T08:09:03.901Z,32.34
2017-05-03T08:10:13.602Z,32.34
2017-05-03T08:11:23.596Z,32.06
2017-05-03T08:12:34.137Z,32.15
2017-05-03T08:13:44.144Z,32.06
2017-05-03T08:14:54.461Z,31.96
2017-05-03T08:16:04.776Z,32.06
2017-05-03T08:17:15.081Z,31.96
2017-05-03T08:18:25.631Z,32.15
2017-05-03T08:19:35.611Z,32.15
2017-05-03T08:20:45.612Z,31.96
2017-05-03T08:21:55.312Z,32.06
2017-05-03T08:23:04.992Z,32.06
2017-05-03T08:24:15.242Z,32.15
2017-05-03T08:25:25.539Z,32.15
2017-05-03T08:26:35.862Z,32.25
2017-05-03T08:27:45.843Z,32.34
2017-05-03T08:28:56.215Z,32.15
2017-05-03T08:30:06.756Z,32.15
2017-05-03T08:31:17.052Z,32.34
2017-05-03T08:32:27.336Z,32.06
2017-05-03T08:33:37.316Z,32.15
2017-05-03T08:34:47.615Z,32.25
2017-05-03T08:35:58.174Z,32.25
2017-05-03T08:37:08.465Z,32.15
2017-05-03T08:38:18.759Z,32.15
2017-05-03T08:39:29.060Z,32.34
2017-05-03T08:40:39.358Z,32.15
2017-05-03T08:41:49.623Z,32.34
2017-05-03T08:42:59.618Z,32.15
2017-05-03T08:44:09.601Z,32.15
2017-05-03T08:45:19.900Z,32.15
2017-05-03T08:46:29.877Z,32.25
2017-05-03T08:47:40.418Z,32.06
2017-05-03T08:48:50.710Z,32.34
2017-05-03T08:50:01.014Z,32.15
2017-05-03T08:51:11.265Z,32.25
2017-05-03T08:52:21.578Z,32.06
2017-05-03T08:53:32.156Z,31.96
2017-05-03T08:54:42.476Z,31.96
2017-05-03T08:55:53.022Z,32.15
2017-05-03T08:57:03.308Z,32.15
2017-05-03T08:58:13.304Z,32.17
2017-05-03T08:59:23.570Z,32.15
2017-05-03T09:00:33.853Z,31.98
2017-05-03T09:01:44.143Z,31.98
2017-05-03T09:02:54.124Z,31.88
2017-05-03T09:04:04.433Z,32.07
2017-05-03T09:05:14.971Z,32.17
2017-05-03T09:06:25.261Z,32.17
2017-05-03T09:07:35.556Z,32.17
2017-05-03T09:08:45.846Z,32.17
2017-05-03T09:09:56.163Z,32.07
2017-05-03T09:11:06.434Z,32.17
2017-05-03T09:12:16.729Z,32.07
2017-05-03T09:13:27.010Z,31.88
2017-05-03T09:14:37.004Z,31.98
2017-05-03T09:15:46.998Z,31.98
2017-05-03T09:16:57.230Z,31.98
2017-05-03T09:18:07.527Z,31.98
2017-05-03T09:19:17.840Z,31.98
2017-05-03T09:20:27.848Z,31.98
2017-05-03T09:21:37.534Z,31.78
2017-05-03T09:22:48.070Z,31.78
2017-05-03T09:23:58.060Z,31.78
2017-05-03T09:25:08.043Z,31.88
2017-05-03T09:26:18.027Z,31.78
2017-05-03T09:27:28.004Z,31.88
2017-05-03T09:28:37.920Z,31.88
2017-05-03T09:29:48.208Z,31.88
2017-05-03T09:30:58.199Z,31.78
2017-05-03T09:32:08.500Z,31.7
2017-05-03T09:33:18.797Z,31.78
2017-05-03T09:34:29.041Z,31.88
2017-05-03T09:35:39.331Z,31.7
2017-05-03T09:36:49.624Z,31.8
2017-05-03T09:37:59.607Z,31.7
2017-05-03T09:39:09.911Z,31.7
2017-05-03T09:40:19.884Z,31.6
2017-05-03T09:41:30.180Z,31.7
2017-05-03T09:42:40.475Z,31.6
2017-05-03T09:43:50.777Z,31.7
2017-05-03T09:45:01.067Z,31.6
2017-05-03T09:46:11.609Z,31.8
2017-05-03T09:47:20.976Z,31.7
2017-05-03T09:48:31.285Z,31.8
2017-05-03T09:49:41.588Z,31.9
2017-05-03T09:50:51.881Z,31.8
2017-05-03T09:52:02.143Z,31.8
2017-05-03T09:53:12.450Z,31.7
2017-05-03T09:54:22.792Z,31.6
2017-05-03T09:55:33.112Z,31.6
2017-05-03T09:56:42.469Z,31.6
2017-05-03T09:57:53.016Z,31.7
2017-05-03T09:59:03.316Z,31.9
2017-05-03T10:00:13.321Z,31.9
2017-05-03T10:01:23.624Z,31.9
2017-05-03T10:02:33.911Z,31.8
2017-05-03T10:03:44.495Z,31.99
2017-05-03T10:04:54.813Z,31.99
2017-05-03T10:06:05.053Z,31.99
2017-05-03T10:07:15.344Z,31.9
2017-05-03T10:08:25.347Z,31.99
2017-05-03T10:09:35.573Z,31.99
2017-05-03T10:10:46.083Z,31.99
2017-05-03T10:11:55.446Z,32.09
2017-05-03T10:13:05.759Z,31.99
2017-05-03T10:14:15.772Z,31.99
2017-05-03T10:15:26.333Z,31.99
2017-05-03T10:16:36.625Z,31.99
2017-05-03T10:17:46.916Z,31.99
2017-05-03T10:18:56.902Z,31.8
2017-05-03T10:20:06.901Z,31.99
2017-05-03T10:21:17.474Z,31.99
2017-05-03T10:22:27.776Z,32.09
2017-05-03T10:23:37.783Z,31.9
2017-05-03T10:24:47.778Z,31.99
2017-05-03T10:25:57.175Z,31.99
2017-05-03T10:27:07.766Z,32.09
2017-05-03T10:28:18.083Z,32.09
2017-05-03T10:29:28.378Z,32.18
2017-05-03T10:30:38.552Z,32.18
2017-05-03T10:31:48.844Z,32.18
2017-05-03T10:32:59.070Z,32.18
2017-05-03T10:34:09.375Z,32.09
2017-05-03T10:35:19.353Z,32.09
2017-05-03T10:36:29.652Z,32.09
2017-05-03T10:37:39.337Z,31.99
2017-05-03T10:38:49.890Z,32.09
2017-05-03T10:39:59.883Z,32.18
2017-05-03T10:41:10.196Z,31.99
2017-05-03T10:42:19.544Z,32.18
2017-05-03T10:43:29.865Z,32.28
2017-05-03T10:44:40.116Z,32.09
2017-05-03T10:45:50.419Z,32.18
2017-05-03T10:47:00.733Z,32.18
2017-05-03T10:48:11.009Z,32.38
2017-05-03T10:49:20.999Z,32.57
2017-05-03T10:50:31.232Z,32.38
2017-05-03T10:51:41.514Z,32.38
2017-05-03T10:52:51.807Z,32.38
2017-05-03T10:54:02.108Z,32.38
2017-05-03T10:55:12.092Z,32.47
2017-05-03T10:56:22.634Z,32.09
2017-05-03T10:57:32.939Z,31.99
2017-05-03T10:58:43.251Z,32.18
2017-05-03T10:59:53.549Z,32.38
2017-05-03T11:01:03.844Z,32.18
2017-05-03T11:02:14.388Z,32.28
2017-05-03T11:03:24.674Z,32.18
2017-05-03T11:04:34.665Z,32.2
2017-05-03T11:05:44.958Z,32.2
2017-05-03T11:06:55.243Z,32.2
2017-05-03T11:08:05.792Z,32.18
2017-05-03T11:09:15.772Z,32.09
2017-05-03T11:10:26.055Z,32.2
2017-05-03T11:11:36.036Z,32.29
2017-05-03T11:12:46.338Z,32.39
2017-05-03T11:13:56.901Z,32.1
2017-05-03T11:15:06.281Z,32.1
2017-05-03T11:16:16.567Z,32.2
2017-05-03T11:17:26.878Z,32.1
2017-05-03T11:18:37.272Z,32.2
2017-05-03T11:19:47.561Z,32.2
2017-05-03T11:20:57.893Z,32.1
2017-05-03T11:22:08.194Z,32.18
2017-05-03T11:23:17.238Z,32.09
2017-05-03T11:24:27.240Z,32.29
2017-05-03T11:25:37.774Z,32.1
2017-05-03T11:26:48.068Z,32.1
2017-05-03T11:27:58.368Z,32.1
2017-05-03T11:29:08.371Z,32.1
2017-05-03T11:30:18.680Z,32.1
2017-05-03T11:31:29.233Z,32.1
2017-05-03T11:32:39.216Z,32.01
2017-05-03T11:33:49.516Z,32.01
2017-05-03T11:34:59.807Z,32.1
2017-05-03T11:36:10.100Z,32.01
2017-05-03T11:37:20.329Z,31.91
2017-05-03T11:38:30.633Z,31.91
2017-05-03T11:39:40.943Z,32.01
2017-05-03T11:40:51.224Z,31.91
2017-05-03T11:42:01.222Z,32.01
2017-05-03T11:43:11.787Z,32.01
2017-05-03T11:44:21.780Z,32.01
2017-05-03T11:45:31.796Z,31.81
2017-05-03T11:46:41.775Z,31.91
2017-05-03T11:47:52.065Z,31.91
2017-05-03T11:49:02.614Z,31.91
2017-05-03T11:50:12.910Z,31.81
2017-05-03T11:51:22.883Z,32.01
2017-05-03T11:52:32.870Z,31.91
2017-05-03T11:53:43.147Z,31.91
2017-05-03T11:54:53.413Z,31.91
2017-05-03T11:56:03.736Z,31.72
2017-05-03T11:57:14.076Z,31.81
2017-05-03T11:58:24.055Z,31.72
2017-05-03T11:59:34.368Z,31.72
2017-05-03T12:00:44.600Z,31.72
2017-05-03T12:01:54.577Z,31.72
2017-05-03T12:03:04.574Z,31.72
2017-05-03T12:04:14.862Z,31.62
2017-05-03T12:05:24.858Z,31.72
2017-05-03T12:06:35.429Z,31.72
2017-05-03T12:07:45.430Z,31.72
2017-05-03T12:08:55.725Z,31.62
2017-05-03T12:10:05.724Z,31.43
2017-05-03T12:11:16.016Z,31.43
2017-05-03T12:12:26.554Z,31.33
2017-05-03T12:13:36.870Z,31.33
2017-05-03T12:14:46.856Z,31.52
2017-05-03T12:15:56.850Z,31.43
2017-05-03T12:17:06.829Z,31.43
2017-05-03T12:18:17.377Z,31.33
2017-05-03T12:19:27.351Z,31.43
2017-05-03T12:20:37.326Z,31.33
2017-05-03T12:21:46.722Z,31.33
2017-05-03T12:22:57.061Z,31.43
2017-05-03T12:24:07.609Z,31.14
2017-05-03T12:25:17.605Z,31.24
2017-05-03T12:26:27.901Z,31.14
2017-05-03T12:27:37.879Z,31.24
2017-05-03T12:28:47.858Z,31.24
2017-05-03T12:29:58.630Z,31.24
2017-05-03T12:31:08.298Z,31.33
2017-05-03T12:32:18.597Z,31.33
2017-05-03T12:33:28.890Z,31.33
2017-05-03T12:34:38.871Z,31.24
2017-05-03T12:35:49.321Z,31.04
2017-05-03T12:36:59.617Z,31.14
2017-05-03T12:38:09.920Z,31.14
2017-05-03T12:39:19.592Z,31.14
2017-05-03T12:40:29.895Z,31.04
2017-05-03T12:41:39.815Z,31.14
2017-05-03T12:42:49.799Z,30.94
2017-05-03T12:43:59.787Z,30.85
2017-05-03T12:45:10.072Z,30.85
2017-05-03T12:46:20.378Z,31.04
2017-05-03T12:47:30.619Z,30.85
2017-05-03T12:48:40.921Z,30.85
2017-05-03T12:49:50.906Z,30.85
2017-05-03T12:51:00.917Z,30.94
2017-05-03T12:52:11.216Z,30.94
2017-05-03T12:53:21.771Z,31.04
2017-05-03T12:54:32.081Z,30.85
2017-05-03T12:55:42.373Z,30.85
2017-05-03T12:56:52.688Z,30.85
2017-05-03T12:58:02.969Z,30.76
2017-05-03T12:59:13.526Z,30.94
2017-05-03T13:00:23.509Z,30.94
2017-05-03T13:01:33.188Z,30.85
2017-05-03T13:02:42.860Z,30.85
2017-05-03T13:03:53.182Z,30.94
2017-05-03T13:05:03.727Z,30.76
2017-05-03T13:06:13.454Z,31.04
2017-05-03T13:07:23.764Z,30.66
2017-05-03T13:08:34.066Z,30.76
2017-05-03T13:09:44.052Z,30.85
2017-05-03T13:10:54.593Z,30.76
2017-05-03T13:12:04.891Z,30.76
2017-05-03T13:13:14.554Z,30.76
2017-05-03T13:14:24.839Z,30.76
2017-05-03T13:15:35.141Z,30.56
2017-05-03T13:16:45.703Z,30.56
2017-05-03T13:17:56.017Z,30.46
2017-05-03T13:19:05.675Z,30.58
2017-05-03T13:20:15.957Z,30.27
2017-05-03T13:21:26.257Z,30.46
2017-05-03T13:22:36.507Z,30.46
2017-05-03T13:23:46.186Z,30.46
2017-05-03T13:24:56.585Z,30.56
2017-05-03T13:26:06.567Z,30.29
2017-05-03T13:27:16.861Z,30.08
2017-05-03T13:28:27.096Z,30.08
2017-05-03T13:29:37.409Z,30.46
2017-05-03T13:30:47.385Z,30.37
2017-05-03T13:31:57.703Z,30.27
2017-05-03T13:33:07.997Z,30.37
2017-05-03T13:34:18.231Z,30.27
2017-05-03T13:35:28.527Z,29.98
2017-05-03T13:36:38.517Z,30.08
2017-05-03T13:37:48.818Z,30.27
2017-05-03T13:38:59.108Z,30.46
2017-05-03T13:40:09.036Z,30.08
2017-05-03T13:41:19.336Z,30.27
2017-05-03T13:42:29.631Z,30.18
2017-05-03T13:43:39.962Z,30.27
2017-05-03T13:44:50.250Z,30.37
2017-05-03T13:46:00.526Z,30.27
2017-05-03T13:47:10.818Z,30.08
2017-05-03T13:48:21.122Z,30.18
2017-05-03T13:49:31.411Z,30.18
2017-05-03T13:50:41.388Z,30.37
2017-05-03T13:51:51.946Z,30.27
2017-05-03T13:53:01.926Z,30.18
2017-05-03T13:54:12.229Z,29.98
2017-05-03T13:55:22.553Z,30.46
2017-05-03T13:56:32.887Z,30.37
2017-05-03T13:57:43.440Z,30.08
2017-05-03T13:58:53.437Z,29.98
2017-05-03T14:00:03.425Z,30.46
2017-05-03T14:01:13.422Z,30.56
2017-05-03T14:02:23.723Z,30.46
2017-05-03T14:03:34.264Z,30.46
2017-05-03T14:04:44.261Z,30.46
2017-05-03T14:05:54.557Z,30.46
2017-05-03T14:07:04.861Z,30.46
2017-05-03T14:08:15.160Z,30.56
2017-05-03T14:09:25.941Z,30.56
2017-05-03T14:10:35.917Z,30.66
2017-05-03T14:11:46.205Z,30.76
2017-05-03T14:12:56.504Z,30.76
2017-05-03T14:14:06.795Z,30.76
2017-05-03T14:15:16.714Z,30.76
2017-05-03T14:16:27.002Z,30.66
2017-05-03T14:17:36.978Z,30.94
2017-05-03T14:18:47.282Z,30.94
2017-05-03T14:19:57.585Z,30.94
2017-05-03T14:21:08.184Z,30.94
2017-05-03T14:22:18.163Z,31.14
2017-05-03T14:23:28.454Z,31.04
2017-05-03T14:24:38.122Z,31.04
2017-05-03T14:25:48.504Z,31.14
2017-05-03T14:26:58.763Z,31.24
2017-05-03T14:28:09.063Z,31.14
2017-05-03T14:29:19.040Z,31.24
2017-05-03T14:30:29.350Z,31.33
2017-05-03T14:31:39.363Z,31.24
2017-05-03T14:32:49.602Z,31.14
2017-05-03T14:33:59.904Z,31.33
2017-05-03T14:35:09.879Z,31.24
2017-05-03T14:36:20.183Z,31.14
2017-05-03T14:37:30.193Z,31.43
2017-05-03T14:38:40.420Z,31.33
2017-05-03T14:39:50.717Z,31.43
2017-05-03T14:41:00.699Z,31.52
2017-05-03T14:42:10.986Z,31.52
2017-05-03T14:43:20.984Z,31.62
2017-05-03T14:44:31.211Z,31.43
2017-05-03T14:45:41.508Z,31.62
2017-05-03T14:46:51.823Z,31.52
2017-05-03T14:48:01.814Z,31.62
2017-05-03T14:49:12.109Z,31.72
2017-05-03T14:50:22.643Z,31.62
2017-05-03T14:51:32.632Z,31.62
2017-05-03T14:52:42.923Z,31.72
2017-05-03T14:53:53.211Z,31.72
2017-05-03T14:55:03.192Z,31.81
2017-05-03T14:56:13.428Z,31.72
2017-05-03T14:57:23.721Z,31.62
2017-05-03T14:58:34.035Z,31.72
2017-05-03T14:59:44.013Z,31.72
2017-05-03T15:00:54.301Z,31.52
2017-05-03T15:02:04.912Z,31.72
2017-05-03T15:03:15.209Z,31.72
2017-05-03T15:04:25.180Z,31.72
2017-05-03T15:05:35.481Z,31.81
2017-05-03T15:06:45.468Z,31.72
2017-05-03T15:07:56.019Z,31.81